Time;durP1;ratioP1;P1;durP2;ratioP2;P2;SDS_P1;SDS_P2;PMS_P1;PMS_P2;Temp;Humidity;BMP_temperature;BMP_pressure;BME280_temperature;BME280_humidity;BME280_pressure;Samples;Min_cycle;Max_cycle;Signal;HPM_P1;HPM_P2
2022/04/24 03:02:04;;;;;;;3.53;3.15;;;18.90;46.50;;;;;;5167247;23;45486;-67
2022/04/24 03:04:31;;;;;;;4.13;3.58;;;19.00;46.60;;;;;;4898115;28;45409;-68
2022/04/24 03:06:56;;;;;;;3.78;3.42;;;19.00;46.60;;;;;;4912810;28;45290;-67
2022/04/24 03:09:22;;;;;;;3.95;3.53;;;19.00;46.50;;;;;;4882743;28;45739;-68
2022/04/24 03:11:48;;;;;;;3.92;3.47;;;19.00;46.60;;;;;;4904848;28;45596;-68
2022/04/24 03:14:13;;;;;;;4.65;3.97;;;19.00;46.60;;;;;;4886853;28;45087;-68
2022/04/24 03:16:39;;;;;;;4.32;3.92;;;19.00;46.60;;;;;;4921193;28;44807;-68
2022/04/24 03:19:05;;;;;;;4.10;3.70;;;19.00;46.60;;;;;;4919519;28;45407;-68
2022/04/24 03:21:30;;;;;;;4.22;3.83;;;18.90;46.50;;;;;;4920805;28;45299;-68
2022/04/24 03:23:56;;;;;;;3.90;3.45;;;19.00;46.50;;;;;;4933001;28;45573;-68
2022/04/24 03:26:22;;;;;;;3.50;3.13;;;19.00;46.60;;;;;;4932881;28;45270;-68
2022/04/24 03:28:48;;;;;;;3.53;3.22;;;19.00;46.50;;;;;;4920994;28;44838;-68
2022/04/24 03:31:13;;;;;;;3.95;3.50;;;19.00;46.50;;;;;;4917941;28;45286;-68
2022/04/24 03:33:39;;;;;;;4.82;3.80;;;19.00;46.50;;;;;;4929314;28;45265;-68
2022/04/24 03:36:05;;;;;;;3.92;3.53;;;19.00;46.60;;;;;;4902621;28;45272;-67
2022/04/24 03:38:30;;;;;;;4.00;3.60;;;19.00;46.60;;;;;;4903964;28;45473;-68
2022/04/24 03:40:56;;;;;;;4.88;3.60;;;19.00;46.60;;;;;;4898877;28;45226;-68
2022/04/24 03:43:22;;;;;;;4.22;3.75;;;18.90;46.60;;;;;;4929218;28;45415;-67
2022/04/24 03:45:47;;;;;;;4.25;3.35;;;19.00;46.60;;;;;;4875647;28;45248;-68
2022/04/24 03:48:13;;;;;;;3.92;3.53;;;19.00;46.60;;;;;;4918025;28;45093;-68
2022/04/24 03:50:38;;;;;;;4.07;3.65;;;18.90;46.60;;;;;;4933959;28;45138;-68
2022/04/24 03:53:05;;;;;;;3.70;3.30;;;18.90;46.60;;;;;;4901602;28;45201;-68
2022/04/24 03:55:30;;;;;;;3.95;3.42;;;19.00;46.60;;;;;;4923074;28;44930;-68
2022/04/24 03:57:56;;;;;;;4.30;3.80;;;19.00;46.60;;;;;;4915882;28;45394;-68
2022/04/24 04:00:22;;;;;;;3.95;3.42;;;18.90;46.60;;;;;;4894299;28;45466;-68
2022/04/24 04:02:48;;;;;;;3.97;3.58;;;18.90;46.60;;;;;;4898297;28;45198;-68
2022/04/24 04:05:16;;;;;;;4.15;3.22;;;18.90;46.60;;;;;;4915370;28;45086;-67
2022/04/24 04:07:42;;;;;;;4.00;3.55;;;18.90;46.60;;;;;;4934469;28;44671;-68
2022/04/24 04:10:08;;;;;;;5.28;3.58;;;18.90;46.60;;;;;;4898324;28;45260;-68
2022/04/24 04:12:34;;;;;;;4.07;3.67;;;18.90;46.60;;;;;;4916311;28;45457;-68
2022/04/24 04:15:01;;;;;;;4.47;3.90;;;18.90;46.70;;;;;;4934228;28;45408;-68
2022/04/24 04:17:27;;;;;;;4.53;3.58;;;18.90;46.70;;;;;;4901637;28;45099;-67
2022/04/24 04:19:53;;;;;;;3.97;3.53;;;18.90;46.70;;;;;;4912754;28;45279;-67
2022/04/24 04:22:19;;;;;;;4.13;3.47;;;18.90;46.70;;;;;;4900009;28;46212;-67
2022/04/24 04:24:44;;;;;;;3.95;3.50;;;18.90;46.70;;;;;;4900671;28;45179;-67
2022/04/24 04:27:10;;;;;;;3.92;3.50;;;18.90;46.70;;;;;;4900905;28;45219;-67
2022/04/24 04:29:36;;;;;;;4.03;3.60;;;18.90;46.70;;;;;;4901823;28;45285;-67
2022/04/24 04:32:02;;;;;;;3.92;3.50;;;18.90;46.70;;;;;;4901981;28;45579;-67
2022/04/24 04:34:28;;;;;;;3.85;3.25;;;18.90;46.70;;;;;;4903553;28;45351;-68
2022/04/24 04:36:54;;;;;;;4.15;3.67;;;18.90;46.70;;;;;;4916389;28;45086;-67
2022/04/24 04:39:20;;;;;;;3.75;3.30;;;18.90;46.70;;;;;;4899881;28;45207;-68
2022/04/24 04:41:46;;;;;;;3.70;3.30;;;18.90;46.70;;;;;;4879191;28;45143;-67
2022/04/24 04:44:12;;;;;;;4.18;3.63;;;18.90;46.70;;;;;;4915439;28;45466;-67
2022/04/24 04:46:38;;;;;;;3.63;3.33;;;18.90;46.70;;;;;;4902055;28;45517;-67
2022/04/24 04:49:04;;;;;;;4.35;3.50;;;18.90;46.70;;;;;;4902278;28;45531;-67
2022/04/24 04:51:30;;;;;;;4.00;3.30;;;18.90;46.70;;;;;;4875201;28;46360;-66
2022/04/24 04:53:56;;;;;;;3.72;3.40;;;18.90;46.70;;;;;;4916318;28;45190;-68
2022/04/24 04:56:22;;;;;;;3.75;3.45;;;18.90;46.70;;;;;;4898549;28;45165;-68
2022/04/24 04:58:48;;;;;;;4.57;3.83;;;18.90;46.70;;;;;;4902722;28;45085;-68
2022/04/24 05:01:13;;;;;;;4.10;3.47;;;18.90;46.70;;;;;;4884584;28;47203;-68
2022/04/24 05:03:42;;;;;;;3.45;3.15;;;18.90;46.80;;;;;;4915631;28;45645;-67
2022/04/24 05:06:28;;;;;;;4.05;3.58;;;18.90;46.80;;;;;;4913888;28;44999;-67
2022/04/24 05:08:53;;;;;;;3.85;3.42;;;18.90;46.70;;;;;;4899346;28;45055;-67
2022/04/24 05:11:19;;;;;;;3.83;3.42;;;18.90;46.70;;;;;;4867859;28;46006;-67
2022/04/24 05:13:44;;;;;;;3.63;3.33;;;18.90;46.70;;;;;;4916737;28;45261;-68
2022/04/24 05:16:10;;;;;;;3.92;3.53;;;18.90;46.70;;;;;;4917498;28;45259;-67
2022/04/24 05:18:36;;;;;;;3.85;3.45;;;18.90;46.80;;;;;;4919902;28;45672;-67
2022/04/24 05:21:02;;;;;;;4.75;3.85;;;18.90;46.70;;;;;;4898152;28;45612;-67
2022/04/24 05:23:27;;;;;;;3.72;3.28;;;18.90;46.80;;;;;;4885470;28;45141;-67
2022/04/24 05:25:53;;;;;;;3.72;3.28;;;18.90;46.70;;;;;;4931419;28;45311;-68
2022/04/24 05:28:19;;;;;;;3.22;2.92;;;18.90;46.80;;;;;;4900878;28;45194;-67
2022/04/24 05:30:44;;;;;;;4.05;3.65;;;18.80;46.70;;;;;;4901493;28;45363;-67
2022/04/24 05:33:15;;;;;;;4.22;3.50;;;18.90;46.80;;;;;;4870147;28;45374;-68
2022/04/24 05:35:40;;;;;;;3.63;3.22;;;18.80;46.70;;;;;;4891318;28;45263;-67
2022/04/24 05:38:06;;;;;;;3.75;3.20;;;18.80;46.70;;;;;;4894139;28;44903;-68
2022/04/24 05:40:31;;;;;;;3.83;3.50;;;18.90;46.80;;;;;;4913157;28;45312;-68
2022/04/24 05:42:57;;;;;;;3.85;3.45;;;18.80;46.70;;;;;;4894147;28;45209;-69
2022/04/24 05:45:24;;;;;;;3.65;3.15;;;18.80;46.70;;;;;;4911329;28;45332;-68
2022/04/24 05:47:51;;;;;;;4.38;3.60;;;18.90;47.40;;;;;;4894200;28;46177;-68
2022/04/24 05:50:16;;;;;;;3.50;3.13;;;18.80;46.70;;;;;;4879111;28;45631;-68
2022/04/24 05:52:43;;;;;;;3.60;3.28;;;18.80;46.70;;;;;;4919995;28;45344;-68
2022/04/24 05:55:08;;;;;;;4.32;3.53;;;18.90;46.80;;;;;;4894555;28;45404;-68
2022/04/24 05:57:35;;;;;;;3.53;3.22;;;18.90;46.70;;;;;;4894411;28;45412;-68
2022/04/24 06:00:00;;;;;;;3.45;3.15;;;18.90;46.70;;;;;;4896585;28;47094;-69
2022/04/24 06:02:26;;;;;;;3.60;3.20;;;18.90;46.70;;;;;;4893467;28;45353;-68
2022/04/24 06:04:53;;;;;;;3.72;3.42;;;18.90;46.70;;;;;;4894853;28;45184;-68
2022/04/24 06:07:19;;;;;;;4.18;3.47;;;18.90;46.80;;;;;;4910607;28;45427;-68
2022/04/24 06:09:44;;;;;;;3.78;3.47;;;18.80;46.70;;;;;;4897385;28;44862;-67
2022/04/24 06:12:10;;;;;;;3.92;3.38;;;18.90;46.80;;;;;;4880537;28;45525;-67
2022/04/24 06:14:40;;;;;;;4.05;3.50;;;18.90;46.70;;;;;;4896671;28;44997;-68
2022/04/24 06:17:05;;;;;;;4.50;3.70;;;18.90;46.80;;;;;;4880190;28;45288;-69
2022/04/24 06:19:31;;;;;;;3.42;3.13;;;18.90;46.80;;;;;;4879355;28;45405;-68
2022/04/24 06:21:57;;;;;;;3.20;2.90;;;18.80;46.80;;;;;;4910763;28;45276;-68
2022/04/24 06:24:23;;;;;;;3.47;3.17;;;18.80;46.80;;;;;;4882035;28;45455;-68
2022/04/24 06:26:48;;;;;;;3.72;3.42;;;18.80;46.70;;;;;;4899170;28;45107;-68
2022/04/24 06:29:14;;;;;;;4.35;3.58;;;18.80;46.80;;;;;;4881202;28;45586;-68
2022/04/24 06:31:39;;;;;;;3.38;3.05;;;18.80;46.80;;;;;;4897477;28;44967;-68
2022/04/24 06:34:05;;;;;;;3.78;3.35;;;18.80;46.80;;;;;;4909019;28;45618;-68
2022/04/24 06:36:31;;;;;;;3.53;3.22;;;18.80;46.80;;;;;;4880688;28;45328;-68
2022/04/24 06:38:57;;;;;;;3.97;3.60;;;18.80;46.80;;;;;;4910208;28;46406;-68
2022/04/24 06:41:22;;;;;;;3.65;3.28;;;18.80;46.70;;;;;;4894808;28;45321;-68
2022/04/24 06:43:48;;;;;;;3.90;3.47;;;18.80;46.70;;;;;;4897535;28;45462;-68
2022/04/24 06:46:13;;;;;;;3.72;3.42;;;18.80;46.70;;;;;;4894725;28;45158;-68
2022/04/24 06:48:39;;;;;;;3.60;3.30;;;18.80;46.70;;;;;;4879282;28;47307;-68
2022/04/24 06:51:05;;;;;;;3.50;3.20;;;18.80;46.70;;;;;;4897429;28;44928;-68
2022/04/24 06:53:30;;;;;;;3.78;3.35;;;18.80;46.70;;;;;;4897083;28;45418;-67
2022/04/24 06:55:56;;;;;;;3.33;3.03;;;18.80;46.80;;;;;;4895852;28;45767;-68
2022/04/24 06:58:24;;;;;;;3.10;2.80;;;18.80;46.80;;;;;;4913370;28;45863;-68
2022/04/24 07:00:50;;;;;;;3.42;3.13;;;18.80;46.80;;;;;;4893229;28;44729;-68
2022/04/24 07:03:21;;;;;;;3.22;2.92;;;18.80;46.80;;;;;;4893886;28;45330;-68
2022/04/24 07:05:47;;;;;;;3.63;3.10;;;18.80;46.80;;;;;;4877023;28;46111;-68
2022/04/24 07:08:12;;;;;;;3.70;3.13;;;18.80;46.80;;;;;;4881162;28;47056;-68
2022/04/24 07:10:38;;;;;;;4.32;3.42;;;18.80;46.80;;;;;;4893782;28;45378;-68
2022/04/24 07:13:04;;;;;;;3.67;3.38;;;18.80;46.80;;;;;;4898428;28;44791;-68
2022/04/24 07:15:31;;;;;;;3.42;3.13;;;18.80;46.90;;;;;;4896741;28;45603;-68
2022/04/24 07:17:57;;;;;;;4.53;3.35;;;18.80;46.90;;;;;;4893666;28;45656;-68
2022/04/24 07:20:23;;;;;;;3.33;3.03;;;18.80;46.90;;;;;;4898037;28;45266;-68
2022/04/24 07:22:52;;;;;;;3.58;3.22;;;18.80;46.90;;;;;;4911815;28;45924;-69
2022/04/24 07:25:22;;;;;;;3.45;3.15;;;18.80;47.50;;;;;;4896664;28;45639;-67
2022/04/24 07:27:48;;;;;;;4.10;3.70;;;18.80;47.00;;;;;;4910015;28;45356;-67
2022/04/24 07:30:14;;;;;;;3.25;2.90;;;18.80;46.90;;;;;;4878555;28;45689;-67
2022/04/24 07:32:44;;;;;;;3.28;2.97;;;18.80;46.90;;;;;;4894795;28;45742;-68
2022/04/24 07:35:11;;;;;;;3.42;3.13;;;18.80;46.90;;;;;;4928377;28;45157;-68
2022/04/24 07:37:37;;;;;;;3.83;3.40;;;18.80;47.00;;;;;;4894850;28;45485;-68
2022/04/24 07:40:04;;;;;;;3.47;3.13;;;18.70;47.00;;;;;;4879666;28;45889;-67
2022/04/24 07:42:30;;;;;;;3.30;3.00;;;18.80;47.00;;;;;;4878488;28;45196;-68
2022/04/24 07:44:56;;;;;;;3.25;2.95;;;18.70;47.00;;;;;;4913268;28;45712;-67
2022/04/24 07:47:22;;;;;;;3.42;3.05;;;18.70;47.00;;;;;;4897121;28;46620;-68
2022/04/24 07:49:47;;;;;;;3.13;2.83;;;18.70;47.00;;;;;;4912216;28;45779;-69
2022/04/24 07:52:13;;;;;;;3.33;2.95;;;18.80;47.00;;;;;;4876194;28;45415;-69
2022/04/24 07:54:39;;;;;;;3.65;3.35;;;18.80;46.90;;;;;;4931268;28;45408;-68
2022/04/24 07:57:05;;;;;;;3.53;3.22;;;18.80;46.90;;;;;;4910397;28;45472;-69
2022/04/24 07:59:31;;;;;;;3.50;3.20;;;18.80;46.90;;;;;;4911717;28;45286;-69
2022/04/24 08:01:56;;;;;;;3.90;3.50;;;18.80;46.90;;;;;;4891212;28;45612;-69
2022/04/24 08:04:22;;;;;;;3.90;3.53;;;18.80;47.00;;;;;;4896296;28;46022;-69
2022/04/24 08:06:48;;;;;;;3.17;2.85;;;18.70;46.90;;;;;;4882527;28;46892;-69
2022/04/24 08:09:14;;;;;;;3.97;3.58;;;18.80;47.00;;;;;;4901566;28;45367;-69
2022/04/24 08:11:40;;;;;;;3.85;3.45;;;18.70;46.90;;;;;;4909342;28;45145;-69
2022/04/24 08:14:05;;;;;;;3.75;3.30;;;18.70;47.00;;;;;;4912479;28;45301;-69
2022/04/24 08:16:31;;;;;;;3.55;3.20;;;18.70;47.00;;;;;;4895917;28;46139;-68
2022/04/24 08:19:01;;;;;;;4.13;3.47;;;18.70;47.00;;;;;;4912583;28;45347;-68
2022/04/24 08:21:26;;;;;;;3.42;3.13;;;18.70;47.50;;;;;;4908344;28;45614;-69
2022/04/24 08:23:52;;;;;;;3.30;3.00;;;18.70;46.80;;;;;;4892264;28;45366;-68
2022/04/24 08:26:18;;;;;;;3.20;2.90;;;18.80;46.90;;;;;;4891212;28;46062;-68
2022/04/24 08:28:44;;;;;;;3.45;3.05;;;18.80;46.80;;;;;;4892250;28;45058;-68
2022/04/24 08:31:10;;;;;;;3.30;3.00;;;18.80;46.90;;;;;;4909271;28;45411;-68
2022/04/24 08:33:35;;;;;;;3.70;3.28;;;18.80;46.90;;;;;;4914694;28;45841;-68
2022/04/24 08:36:01;;;;;;;3.65;3.15;;;18.70;46.90;;;;;;4887434;28;47814;-69
2022/04/24 08:38:27;;;;;;;3.28;2.97;;;18.70;46.90;;;;;;4895115;28;44949;-68
2022/04/24 08:40:52;;;;;;;4.07;3.55;;;18.70;46.90;;;;;;4911072;28;45492;-68
2022/04/24 08:43:18;;;;;;;3.47;3.17;;;18.70;46.90;;;;;;4894031;28;45673;-68
2022/04/24 08:45:45;;;;;;;3.03;2.72;;;18.70;46.90;;;;;;4897340;28;46042;-68
2022/04/24 08:48:11;;;;;;;3.65;2.90;;;18.70;46.90;;;;;;4907471;28;44831;-68
2022/04/24 08:50:36;;;;;;;3.38;3.08;;;18.70;46.90;;;;;;4911188;28;45092;-68
2022/04/24 08:53:02;;;;;;;4.22;3.47;;;18.70;46.90;;;;;;4892780;28;45428;-68
2022/04/24 08:55:29;;;;;;;3.00;2.70;;;18.70;46.90;;;;;;4894075;28;45376;-68
2022/04/24 08:57:55;;;;;;;3.50;3.20;;;18.70;46.80;;;;;;4896873;28;45323;-68
2022/04/24 09:00:21;;;;;;;3.50;2.95;;;18.70;46.90;;;;;;4878522;28;45542;-68
2022/04/24 09:02:47;;;;;;;3.55;3.25;;;18.70;46.90;;;;;;4893591;28;45934;-68
2022/04/24 09:05:13;;;;;;;3.45;3.03;;;18.70;46.90;;;;;;4893449;28;45642;-68
2022/04/24 09:07:43;;;;;;;3.30;2.97;;;18.70;46.90;;;;;;4911392;28;45284;-68
2022/04/24 09:10:11;;;;;;;3.40;3.10;;;18.70;46.90;;;;;;4926107;28;45696;-69
2022/04/24 09:12:38;;;;;;;3.17;2.88;;;18.70;46.80;;;;;;4916403;28;45647;-68
2022/04/24 09:15:04;;;;;;;3.35;3.05;;;18.70;46.80;;;;;;4892796;28;46955;-67
2022/04/24 09:17:34;;;;;;;3.17;2.88;;;18.70;46.80;;;;;;4872789;28;45334;-69
2022/04/24 09:20:00;;;;;;;3.30;3.00;;;18.70;46.90;;;;;;4892899;28;44968;-69
2022/04/24 09:22:26;;;;;;;3.60;3.20;;;18.70;46.80;;;;;;4879676;28;45529;-68
2022/04/24 09:24:56;;;;;;;3.10;2.80;;;18.70;46.90;;;;;;4876891;28;45548;-69
2022/04/24 09:27:30;;;;;;;3.63;3.03;;;18.70;46.80;;;;;;4895180;28;44764;-69
2022/04/24 09:29:56;;;;;;;;;;;18.70;46.80;;;;;;4929277;28;45742;-70
2022/04/24 09:32:23;;;;;;;3.78;2.95;;;18.70;46.90;;;;;;4878433;28;45425;-69
2022/04/24 09:34:48;;;;;;;2.97;2.67;;;18.60;46.90;;;;;;4893059;28;47241;-69
2022/04/24 09:37:14;;;;;;;3.20;2.90;;;18.70;46.90;;;;;;4882612;28;45112;-69
2022/04/24 09:39:40;;;;;;;3.35;2.65;;;18.70;46.90;;;;;;4908205;28;45541;-69
2022/04/24 09:42:06;;;;;;;3.03;2.58;;;18.70;46.90;;;;;;4892589;28;45642;-68
2022/04/24 09:44:42;;;;;;;3.25;2.95;;;18.70;46.80;;;;;;4866839;28;46885;-69
2022/04/24 09:47:08;;;;;;;3.22;2.92;;;18.70;46.80;;;;;;4886520;28;45327;-67
2022/04/24 09:49:41;;;;;;;3.42;3.13;;;18.70;46.80;;;;;;4897383;28;45662;-68
2022/04/24 09:52:25;;;;;;;3.60;3.30;;;18.70;46.80;;;;;;4883526;28;45717;-67
2022/04/24 09:54:52;;;;;;;3.10;2.80;;;18.70;46.80;;;;;;4887622;28;45583;-67
2022/04/24 09:57:19;;;;;;;3.30;3.00;;;18.70;46.70;;;;;;4873201;28;45417;-66
2022/04/24 09:59:46;;;;;;;3.63;3.25;;;18.80;46.70;;;;;;4886417;28;45713;-67
2022/04/24 10:02:13;;;;;;;3.33;3.03;;;18.80;46.70;;;;;;4868915;28;45457;-68
2022/04/24 10:04:39;;;;;;;3.03;2.58;;;18.80;46.70;;;;;;4891385;28;47085;-68
2022/04/24 10:07:06;;;;;;;3.20;2.90;;;18.80;46.70;;;;;;4896291;28;45260;-68
2022/04/24 10:09:40;;;;;;;3.30;3.00;;;18.80;46.70;;;;;;4875019;28;45857;-68
2022/04/24 10:12:10;;;;;;;3.35;3.05;;;18.80;46.70;;;;;;4877497;28;45699;-68
2022/04/24 10:14:45;;;;;;;3.22;2.92;;;18.80;46.60;;;;;;4885283;28;45332;-68
2022/04/24 10:17:49;;;;;;;3.38;3.08;;;18.90;46.70;;;;;;4883699;28;45607;-68
2022/04/24 10:20:33;;;;;;;3.72;3.05;;;18.90;46.60;;;;;;4890350;28;45829;-67
2022/04/24 10:22:58;;;;;;;3.22;2.92;;;18.90;46.60;;;;;;4855331;28;45852;-68
2022/04/24 10:25:41;;;;;;;3.05;2.75;;;18.90;46.50;;;;;;4873631;28;47339;-67
2022/04/24 10:28:10;;;;;;;3.67;3.10;;;18.90;46.50;;;;;;4904140;28;44747;-67
2022/04/24 10:30:36;;;;;;;4.20;3.35;;;18.90;46.50;;;;;;4868385;28;44860;-67
2022/04/24 10:33:28;;;;;;;3.20;2.90;;;18.90;46.50;;;;;;4897835;28;45412;-68
2022/04/24 10:35:59;;;;;;;3.35;3.05;;;18.90;46.40;;;;;;4913887;28;45220;-67
2022/04/24 10:38:25;;;;;;;3.38;2.83;;;18.90;46.50;;;;;;4897833;28;45322;-66
2022/04/24 10:41:05;;;;;;;3.63;2.67;;;18.90;46.50;;;;;;4914927;28;45289;-67
2022/04/24 10:43:40;;;;;;;3.28;2.95;;;19.00;46.50;;;;;;4929831;28;45528;-67
2022/04/24 10:46:17;;;;;;;2.90;2.60;;;18.90;46.50;;;;;;4898780;28;45683;-67
2022/04/24 10:48:43;;;;;;;3.40;2.92;;;19.00;46.50;;;;;;4918102;28;45044;-67
2022/04/24 10:51:08;;;;;;;2.60;2.40;;;18.90;46.50;;;;;;4926121;28;45165;-68
2022/04/24 10:53:55;;;;;;;3.17;2.88;;;18.90;46.50;;;;;;4873896;28;45323;-68
2022/04/24 10:56:21;;;;;;;2.90;2.67;;;18.90;46.50;;;;;;4903740;28;45802;-67
2022/04/24 10:58:49;;;;;;;3.90;3.00;;;18.90;46.50;;;;;;4917418;28;45420;-68
2022/04/24 11:01:15;;;;;;;3.38;3.08;;;18.90;46.50;;;;;;4910064;28;45174;-68
2022/04/24 11:03:45;;;;;;;3.05;2.75;;;18.90;46.50;;;;;;4897323;28;45229;-68
2022/04/24 11:06:22;;;;;;;2.70;2.50;;;19.00;46.50;;;;;;4904677;28;45424;-67
2022/04/24 11:08:47;;;;;;;3.05;2.75;;;19.00;46.50;;;;;;4883587;28;45378;-68
2022/04/24 11:11:13;;;;;;;2.55;2.35;;;18.90;46.50;;;;;;4899291;28;46135;-67
2022/04/24 11:13:39;;;;;;;2.85;2.65;;;18.90;46.60;;;;;;4896471;28;45241;-68
2022/04/24 11:16:06;;;;;;;2.85;2.58;;;18.90;46.60;;;;;;4878322;28;46645;-68
2022/04/24 11:18:32;;;;;;;3.13;2.60;;;18.80;46.50;;;;;;4867556;28;45353;-68
2022/04/24 11:21:03;;;;;;;3.10;2.65;;;18.80;46.50;;;;;;4914520;28;45640;-68
2022/04/24 11:23:57;;;;;;;2.90;2.60;;;18.90;46.60;;;;;;4899926;28;44870;-69
2022/04/24 11:26:26;;;;;;;2.42;2.22;;;18.90;46.50;;;;;;4896853;28;47311;-68
2022/04/24 11:28:53;;;;;;;2.97;2.70;;;18.90;46.50;;;;;;4893085;28;45246;-68
2022/04/24 11:31:19;;;;;;;3.03;2.72;;;18.90;46.50;;;;;;4915510;28;45178;-68
2022/04/24 11:33:59;;;;;;;2.70;2.50;;;19.00;46.50;;;;;;4913573;28;45587;-68
2022/04/24 11:36:32;;;;;;;3.20;2.67;;;19.00;46.50;;;;;;4894604;28;46383;-68
2022/04/24 11:39:03;;;;;;;2.35;2.15;;;19.00;46.50;;;;;;4896245;28;45511;-69
2022/04/24 11:41:29;;;;;;;2.75;2.47;;;19.00;46.50;;;;;;4904828;28;45513;-69
2022/04/24 11:44:02;;;;;;;2.70;2.50;;;18.90;46.60;;;;;;4895056;28;45423;-68
2022/04/24 11:51:59;;;;;;;2.67;2.47;;;18.90;46.60;;;;;;4893088;28;44900;-68
2022/04/24 11:54:24;;;;;;;2.72;2.50;;;18.90;46.60;;;;;;4880235;28;45128;-68
2022/04/24 11:56:50;;;;;;;2.78;2.58;;;18.90;47.20;;;;;;4846491;28;46406;-68
2022/04/24 11:59:18;;;;;;;3.42;2.60;;;18.90;46.60;;;;;;4876230;28;46216;-69
2022/04/24 12:01:44;;;;;;;2.88;2.60;;;18.90;46.70;;;;;;4906718;28;45536;-68
2022/04/24 12:04:19;;;;;;;2.72;2.47;;;18.90;46.60;;;;;;4876175;28;45258;-68
2022/04/24 12:06:45;;;;;;;2.80;2.60;;;18.90;46.60;;;;;;4905630;28;46625;-68
2022/04/24 12:09:11;;;;;;;2.85;2.55;;;18.80;46.50;;;;;;4893532;28;45594;-68
2022/04/24 12:11:37;;;;;;;2.97;2.65;;;18.90;47.20;;;;;;4870093;28;45059;-68
2022/04/24 12:14:13;;;;;;;2.92;2.72;;;18.90;46.60;;;;;;4890070;28;46302;-68
2022/04/24 12:16:45;;;;;;;2.92;2.60;;;18.80;46.60;;;;;;4894364;28;48584;-68
2022/04/24 12:19:12;;;;;;;3.30;3.00;;;18.90;46.60;;;;;;4888931;28;45269;-68
2022/04/24 12:21:49;;;;;;;2.63;2.35;;;18.80;46.50;;;;;;4891526;28;45228;-68
2022/04/24 12:24:16;;;;;;;3.45;3.05;;;18.90;46.50;;;;;;4904260;28;45215;-67
2022/04/24 12:26:48;;;;;;;2.80;2.50;;;18.90;46.60;;;;;;4885958;28;45681;-68
2022/04/24 12:29:15;;;;;;;2.63;2.17;;;18.90;46.60;;;;;;4889023;28;45544;-69
2022/04/24 12:31:47;;;;;;;3.00;2.60;;;18.90;46.60;;;;;;4876655;28;45300;-68
2022/04/24 12:34:13;;;;;;;3.00;2.58;;;18.90;46.60;;;;;;4877071;28;45743;-68
2022/04/24 12:36:49;;;;;;;2.90;2.45;;;18.80;46.50;;;;;;4875479;28;48205;-68
2022/04/24 12:39:15;;;;;;;2.88;2.55;;;18.90;46.50;;;;;;4893215;28;45675;-67
2022/04/24 12:41:40;;;;;;;4.57;3.00;;;18.80;46.50;;;;;;4890908;28;45520;-68
2022/04/24 12:44:07;;;;;;;2.60;2.40;;;18.90;46.60;;;;;;4925905;28;45284;-68
2022/04/24 12:46:33;;;;;;;2.80;2.60;;;18.90;46.60;;;;;;4875775;28;47099;-68
2022/04/24 12:49:00;;;;;;;2.63;2.42;;;18.80;46.50;;;;;;4873346;28;45283;-68
2022/04/24 12:51:26;;;;;;;3.00;2.70;;;18.90;46.60;;;;;;4925752;28;45327;-66
2022/04/24 12:53:56;;;;;;;2.92;2.63;;;18.90;46.60;;;;;;4906222;28;45491;-68
2022/04/24 12:56:21;;;;;;;2.55;2.33;;;19.00;46.60;;;;;;4892751;28;46925;-67
2022/04/24 12:58:47;;;;;;;3.20;2.90;;;18.90;46.60;;;;;;4888943;28;45173;-67
2022/04/24 13:01:14;;;;;;;3.35;2.67;;;18.90;46.50;;;;;;4889328;28;45095;-67
2022/04/24 13:03:40;;;;;;;3.70;2.70;;;18.90;46.50;;;;;;4893327;28;45401;-67
2022/04/24 13:06:07;;;;;;;3.00;2.70;;;18.90;46.60;;;;;;4909460;28;45422;-66
2022/04/24 13:08:33;;;;;;;3.30;3.00;;;18.90;46.60;;;;;;4875178;28;45205;-67
2022/04/24 13:10:58;;;;;;;2.55;2.35;;;18.90;46.50;;;;;;4911623;28;44931;-67
2022/04/24 13:13:24;;;;;;;2.50;2.30;;;18.90;46.50;;;;;;4898016;28;45548;-68
2022/04/24 13:18:07;;;;;;;2.13;1.95;;;18.90;46.60;;;;;;4894744;28;46552;-68
2022/04/24 13:18:36;;;;;;;2.58;2.20;;;18.90;46.60;;;;;;4912104;28;45242;-67
2022/04/24 13:21:02;;;;;;;2.40;2.20;;;18.90;46.60;;;;;;4894583;28;45228;-68
2022/04/24 13:23:28;;;;;;;2.50;2.30;;;18.90;46.70;;;;;;4895021;28;46011;-68
2022/04/24 13:25:54;;;;;;;2.90;2.60;;;18.90;46.60;;;;;;4910749;28;45337;-67
2022/04/24 13:28:20;;;;;;;3.00;2.65;;;18.80;46.60;;;;;;4897050;28;45452;-67
2022/04/24 13:30:47;;;;;;;2.95;2.65;;;18.90;46.60;;;;;;4883159;28;44876;-67
2022/04/24 13:33:14;;;;;;;2.58;2.38;;;18.80;46.60;;;;;;4902107;28;46077;-67
2022/04/24 13:35:39;;;;;;;2.78;2.58;;;18.80;46.60;;;;;;4895432;28;45532;-68
2022/04/24 13:38:17;;;;;;;2.38;2.17;;;18.90;46.70;;;;;;4916706;28;45289;-68
2022/04/24 13:40:44;;;;;;;2.53;2.33;;;18.80;46.60;;;;;;4896266;28;45981;-68
2022/04/24 13:43:10;;;;;;;3.08;2.67;;;18.90;46.70;;;;;;4897862;28;45467;-67
2022/04/24 13:45:36;;;;;;;2.38;2.15;;;18.90;46.80;;;;;;4905572;28;45565;-67
2022/04/24 13:48:02;;;;;;;3.33;2.58;;;18.80;46.70;;;;;;4881913;28;45857;-67
2022/04/24 13:50:30;;;;;;;2.78;2.50;;;18.90;46.80;;;;;;4885690;28;45153;-67
2022/04/24 13:52:57;;;;;;;2.47;2.28;;;18.90;46.90;;;;;;4899643;28;45590;-68
2022/04/24 13:55:23;;;;;;;2.50;2.30;;;18.90;46.80;;;;;;4895966;28;48159;-68
2022/04/24 13:57:48;;;;;;;2.47;2.28;;;18.90;46.80;;;;;;4898510;28;45345;-67
2022/04/24 14:00:14;;;;;;;2.40;2.20;;;18.80;46.70;;;;;;4900208;28;45782;-67
2022/04/24 14:02:40;;;;;;;2.60;2.38;;;18.90;46.80;;;;;;4881969;28;45489;-67
2022/04/24 14:05:07;;;;;;;2.72;2.50;;;18.90;46.80;;;;;;4930575;28;46220;-67
2022/04/24 14:07:33;;;;;;;2.45;2.22;;;18.90;46.80;;;;;;4913649;28;45242;-67
2022/04/24 14:09:59;;;;;;;2.88;2.58;;;18.90;46.80;;;;;;4915528;28;45393;-68
2022/04/24 14:12:24;;;;;;;2.78;2.40;;;18.80;46.70;;;;;;4881281;28;45348;-68
2022/04/24 14:14:50;;;;;;;2.38;2.17;;;18.90;46.80;;;;;;4895359;28;45637;-68
2022/04/24 14:17:16;;;;;;;2.53;2.33;;;18.90;46.80;;;;;;4930449;28;45015;-68
2022/04/24 14:19:42;;;;;;;2.42;2.22;;;18.90;46.90;;;;;;4894227;28;45246;-68
2022/04/24 14:22:07;;;;;;;3.25;2.22;;;18.90;46.90;;;;;;4880950;28;45602;-68
2022/04/24 14:24:33;;;;;;;2.53;2.33;;;18.90;46.90;;;;;;4931191;28;45816;-68
2022/04/24 14:26:59;;;;;;;2.30;2.10;;;18.80;46.90;;;;;;4930152;28;45172;-68
2022/04/24 14:29:25;;;;;;;3.40;2.85;;;18.90;46.90;;;;;;4900904;28;45449;-68
2022/04/24 14:31:50;;;;;;;2.17;1.98;;;18.80;46.80;;;;;;4865632;28;44985;-68
2022/04/24 14:34:16;;;;;;;2.60;2.40;;;18.90;46.90;;;;;;4898488;28;46010;-67
2022/04/24 14:36:42;;;;;;;2.53;2.33;;;18.90;46.90;;;;;;4894701;28;45316;-69
2022/04/24 14:39:09;;;;;;;2.30;2.10;;;18.90;46.90;;;;;;4891731;28;45283;-68
2022/04/24 14:41:35;;;;;;;2.40;2.20;;;18.80;46.90;;;;;;4894376;28;45021;-68
2022/04/24 14:44:01;;;;;;;2.70;2.50;;;18.90;46.90;;;;;;4916896;28;47750;-67
2022/04/24 14:57:31;;;;;;;2.38;2.17;;;18.80;46.90;;;;;;4883307;28;45299;-66
2022/04/24 14:59:58;;;;;;;2.03;1.83;;;18.80;47.00;;;;;;4887052;28;45575;-66
2022/04/24 15:02:24;;;;;;;2.40;2.20;;;18.80;46.90;;;;;;4912305;28;45800;-66
2022/04/24 15:04:50;;;;;;;2.33;2.13;;;18.80;46.80;;;;;;4913192;28;45611;-66
2022/04/24 15:07:16;;;;;;;2.30;2.10;;;18.80;46.80;;;;;;4894164;28;44852;-66
2022/04/24 15:09:42;;;;;;;2.50;2.30;;;18.90;46.90;;;;;;4914319;28;45420;-67
2022/04/24 15:12:10;;;;;;;2.40;2.20;;;18.80;46.80;;;;;;4909135;28;46113;-67
2022/04/24 15:14:38;;;;;;;2.15;1.95;;;18.80;46.80;;;;;;4866636;28;45465;-67
2022/04/24 15:17:04;;;;;;;2.40;2.20;;;18.80;46.80;;;;;;4927737;28;45141;-67
2022/04/24 15:19:30;;;;;;;3.13;2.30;;;18.90;46.80;;;;;;4877220;28;45510;-67
2022/04/24 15:21:56;;;;;;;2.47;2.28;;;18.90;46.80;;;;;;4892324;28;45293;-67
2022/04/24 15:24:22;;;;;;;2.65;2.40;;;18.90;46.80;;;;;;4907586;28;45906;-67
2022/04/24 15:26:51;;;;;;;2.50;2.30;;;18.90;46.90;;;;;;4893283;28;45469;-67
2022/04/24 15:29:20;;;;;;;2.40;2.20;;;18.90;46.80;;;;;;4911161;28;45279;-69
2022/04/24 15:31:46;;;;;;;2.38;2.15;;;18.80;47.50;;;;;;4907584;28;45357;-67
2022/04/24 15:34:13;;;;;;;2.50;2.30;;;18.80;46.80;;;;;;4907021;28;45378;-68
2022/04/24 15:36:39;;;;;;;2.95;2.65;;;18.80;46.80;;;;;;4892338;28;45410;-67
2022/04/24 15:39:04;;;;;;;2.75;2.53;;;18.80;46.80;;;;;;4894721;28;45237;-67
2022/04/24 15:41:32;;;;;;;2.75;2.42;;;18.90;46.80;;;;;;4874652;28;44845;-67
2022/04/24 15:43:58;;;;;;;2.53;2.28;;;18.80;46.80;;;;;;4892530;28;45911;-67
2022/04/24 15:46:24;;;;;;;2.40;2.20;;;18.80;46.80;;;;;;4872613;28;45275;-67
2022/04/24 15:48:50;;;;;;;2.45;2.25;;;18.80;46.80;;;;;;4887962;28;45224;-67
2022/04/24 15:51:16;;;;;;;2.95;2.47;;;18.80;46.80;;;;;;4923042;28;45870;-67
2022/04/24 15:53:44;;;;;;;2.72;2.53;;;18.80;46.80;;;;;;4896216;28;45983;-67
2022/04/24 15:56:09;;;;;;;2.97;2.58;;;18.80;46.80;;;;;;4891542;28;45222;-67
2022/04/24 15:58:36;;;;;;;2.10;1.92;;;18.80;46.80;;;;;;4875778;28;45323;-67
2022/04/24 16:01:02;;;;;;;2.35;2.15;;;18.80;46.80;;;;;;4893847;28;45798;-67
2022/04/24 16:03:28;;;;;;;2.33;2.13;;;18.80;46.80;;;;;;4892638;28;45786;-67
2022/04/24 16:05:54;;;;;;;2.58;2.38;;;18.80;46.80;;;;;;4876728;28;45261;-67